Marmelopolis, Brazil
Current Conditions -  °F | °C
As of 8:00 AM on Saturday 25 Oct 2014 (Local Time) from SBGW Reporting Station
Broken Clouds Broken Clouds  
Wind Chill: 70°   Ceiling: 8000
Heat Index: 70°   Visibility: 5mi
Dew Point: 63°   Wind: 0mph
Humidity: 78%   Direction: NA
Pressure: 30"   Gusts: NA
Location:  22.45°S, 45.17°W
Report Text: SBGW 251000Z 00000KT 8000 FEW015 BKN080 21/17 Q1016
Loading
Personal Weather Stations






























Interactive Weather Map
Tropical Storm Tracking
New forecast layout! Learn more

10-Day Weather Forecast

Advertisements
Track Severe Weather on mobile